Time;durP1;ratioP1;P1;durP2;ratioP2;P2;SDS_P1;SDS_P2;PMS_P1;PMS_P2;Temp;Humidity;BMP_temperature;BMP_pressure;BME280_temperature;BME280_humidity;BME280_pressure;Samples;Min_cycle;Max_cycle;Signal;HPM_P1;HPM_P2
2022/07/30 00:01:00;;;;;;;;;4.67;4.67;;;;;26.61;39.63;101568.34;5058954;28;45440;-71
2022/07/30 00:03:26;;;;;;;;;4.00;4.00;;;;;26.57;39.57;101569.41;5077322;28;45703;-72
2022/07/30 00:05:53;;;;;;;;;4.00;3.00;;;;;26.55;39.24;101571.31;5077027;28;45441;-70
2022/07/30 00:08:19;;;;;;;;;6.00;4.00;;;;;26.54;39.35;101569.56;5076613;28;46627;-70
2022/07/30 00:10:44;;;;;;;;;3.33;3.33;;;;;26.51;39.41;101561.56;5076593;28;45375;-72
2022/07/30 00:13:09;;;;;;;;;3.67;3.00;;;;;26.54;38.92;101561.44;5077008;28;45449;-71
2022/07/30 00:15:35;;;;;;;;;4.00;3.67;;;;;26.50;39.06;101557.09;5076712;28;45484;-71
2022/07/30 00:18:00;;;;;;;;;2.67;2.67;;;;;26.48;39.21;101559.00;5076663;28;45659;-70
2022/07/30 00:20:25;;;;;;;;;3.67;3.67;;;;;26.50;39.63;101562.53;5076702;28;45339;-71
2022/07/30 00:22:51;;;;;;;;;3.00;3.00;;;;;26.49;39.44;101563.47;5076125;28;56942;-71
2022/07/30 00:25:17;;;;;;;;;3.00;3.00;;;;;26.48;39.16;101560.84;5076061;28;55210;-72
2022/07/30 00:27:44;;;;;;;;;6.00;4.67;;;;;26.45;39.31;101559.13;5076575;28;46293;-72
2022/07/30 00:30:10;;;;;;;;;5.33;3.67;;;;;26.44;39.66;101568.22;5058503;27;45242;-72
2022/07/30 00:32:36;;;;;;;;;4.00;4.00;;;;;26.46;39.98;101565.44;5061743;28;45295;-71
2022/07/30 00:35:01;;;;;;;;;4.33;4.33;;;;;26.45;39.58;101572.69;5080290;28;45406;-72
2022/07/30 00:37:27;;;;;;;;;3.33;3.33;;;;;26.46;39.52;101562.72;5079940;28;46533;-70
2022/07/30 00:39:52;;;;;;;;;5.67;4.00;;;;;26.45;39.82;101569.09;5078947;28;61781;-72
2022/07/30 00:42:24;;;;;;;;;3.00;3.00;;;;;26.45;40.08;101567.25;5079446;28;58675;-71
2022/07/30 00:44:50;;;;;;;;;4.00;4.00;;;;;26.44;40.30;101570.03;5080602;28;45256;-73
2022/07/30 00:47:16;;;;;;;;;3.00;3.00;;;;;26.43;40.45;101565.56;5079347;28;45840;-71
2022/07/30 00:49:41;;;;;;;;;6.33;6.33;;;;;26.43;40.73;101562.88;5079005;28;65245;-70
2022/07/30 00:52:06;;;;;;;;;5.00;4.00;;;;;26.39;40.91;101552.13;5061057;28;63291;-71
2022/07/30 00:54:32;;;;;;;;;5.00;4.00;;;;;26.41;41.11;101557.47;5079034;28;51801;-71
2022/07/30 00:56:57;;;;;;;;;4.00;4.00;;;;;26.39;41.00;101554.84;5079756;28;46703;-70
2022/07/30 00:59:22;;;;;;;;;5.00;5.00;;;;;26.33;41.43;101549.69;5078806;28;60531;-70
2022/07/30 01:01:48;;;;;;;;;4.00;4.00;;;;;26.32;40.90;101552.47;5079305;28;58624;-72
2022/07/30 01:04:13;;;;;;;;;4.67;4.00;;;;;26.25;41.23;101548.25;5079022;28;57970;-72
2022/07/30 01:06:39;;;;;;;;;3.67;3.67;;;;;26.25;41.39;101557.25;5079055;28;55797;-70
2022/07/30 01:09:04;;;;;;;;;4.00;4.00;;;;;26.21;41.85;101552.94;5079094;28;45395;-72
2022/07/30 01:11:35;;;;;;;;;5.67;5.00;;;;;26.18;41.96;101547.63;5079642;28;45321;-71
2022/07/30 01:14:00;;;;;;;;;4.00;4.00;;;;;26.15;42.21;101547.75;5061496;28;45440;-72
2022/07/30 01:16:25;;;;;;;;;6.00;4.00;;;;;26.11;41.73;101544.31;5078540;28;66015;-71
2022/07/30 01:21:38;;;;;;;;;6.00;4.67;;;;;26.09;41.92;101542.59;5064020;28;45372;-71
2022/07/30 01:24:32;;;;;;;;;5.00;4.33;;;;;26.09;42.77;101542.59;5061447;28;45544;-72
2022/07/30 01:26:59;;;;;;;;;6.67;5.00;;;;;26.08;42.16;101547.13;5077861;28;45984;-72
2022/07/30 01:29:26;;;;;;;;;4.00;4.00;;;;;26.08;42.50;101547.13;5060776;28;55430;-71
2022/07/30 01:31:54;;;;;;;;;4.00;4.00;;;;;26.07;42.82;101548.09;5061058;28;45349;-71
2022/07/30 01:34:21;;;;;;;;;4.33;4.33;;;;;26.05;42.32;101544.59;5079525;28;45331;-71
2022/07/30 01:36:47;;;;;;;;;6.00;4.33;;;;;26.01;43.08;101540.25;5060791;28;45612;-71
2022/07/30 01:39:14;;;;;;;;;4.67;4.00;;;;;25.99;42.36;101546.63;5059688;28;64185;-71
2022/07/30 01:41:41;;;;;;;;;4.00;4.00;;;;;25.98;42.55;101558.41;5059875;28;62332;-71
2022/07/30 01:44:07;;;;;;;;;7.33;4.00;;;;;25.93;42.68;101552.31;5078112;28;45174;-72
2022/07/30 01:46:32;;;;;;;;;5.33;4.00;;;;;25.88;42.78;101552.50;5060334;28;45642;-73
2022/07/30 01:48:59;;;;;;;;;11.00;6.00;;;;;25.85;43.39;101548.09;5060791;28;45266;-71
2022/07/30 01:51:26;;;;;;;;;6.00;4.33;;;;;25.80;43.57;101551.94;5059798;28;62165;-71
2022/07/30 01:53:52;;;;;;;;;4.67;4.67;;;;;25.75;43.15;101537.72;5059999;28;61639;-70
2022/07/30 01:56:18;;;;;;;;;4.00;4.00;;;;;25.74;43.39;101535.94;5060545;28;47007;-71
2022/07/30 01:58:45;;;;;;;;;5.00;5.00;;;;;25.72;43.46;101537.81;5060731;28;45412;-72
2022/07/30 02:01:11;;;;;;;;;5.00;5.00;;;;;25.68;43.28;101542.47;5043914;28;45275;-71
2022/07/30 02:03:36;;;;;;;;;8.00;5.00;;;;;25.63;44.11;101535.50;5078859;28;45295;-72
2022/07/30 02:06:32;;;;;;;;;5.00;5.00;;;;;25.63;43.76;101549.91;5060324;28;45548;-71
2022/07/30 02:09:01;;;;;;;;;6.00;4.33;;;;;25.58;44.23;101546.50;5039631;28;45569;-72
2022/07/30 02:14:17;;;;;;;;;5.00;4.67;;;;;25.47;43.82;101538.81;5063704;28;45330;-71
2022/07/30 02:16:44;;;;;;;;;5.00;4.00;;;;;25.46;44.28;101552.38;5059982;28;46071;-72
2022/07/30 02:19:14;;;;;;;;;5.33;4.00;;;;;25.41;43.91;101544.47;5043245;28;45462;-72
2022/07/30 02:21:46;;;;;;;;;5.00;4.00;;;;;25.38;44.36;101544.56;5060460;28;45373;-73
2022/07/30 02:24:14;;;;;;;;;4.33;4.33;;;;;25.36;44.37;101551.00;5060790;28;45366;-71
2022/07/30 02:26:41;;;;;;;;;3.00;3.00;;;;;25.30;44.46;101546.69;5059873;28;46625;-71
2022/07/30 02:29:07;;;;;;;;;6.00;5.00;;;;;25.22;44.92;101538.88;5059893;28;45357;-71
2022/07/30 02:31:33;;;;;;;;;5.67;5.00;;;;;25.20;45.02;101546.19;5078246;27;45319;-72
2022/07/30 02:34:02;;;;;;;;;5.00;5.00;;;;;25.18;45.37;101541.75;5078889;28;45419;-71
2022/07/30 02:36:29;;;;;;;;;6.00;6.00;;;;;25.12;45.17;101542.00;5059805;28;47479;-71
2022/07/30 02:38:55;;;;;;;;;6.00;4.00;;;;;25.09;45.56;101540.31;5059985;28;45386;-72
2022/07/30 02:41:23;;;;;;;;;7.00;6.00;;;;;25.07;45.37;101534.94;5060225;28;45367;-72
2022/07/30 02:43:50;;;;;;;;;4.00;4.00;;;;;25.04;45.17;101535.03;5060498;28;45479;-70
2022/07/30 02:46:17;;;;;;;;;6.67;4.00;;;;;25.01;45.75;101537.84;5077516;28;47569;-71
2022/07/30 02:48:44;;;;;;;;;6.67;6.00;;;;;25.00;45.49;101535.22;5078179;28;45397;-72
2022/07/30 02:51:10;;;;;;;;;6.33;5.00;;;;;24.97;45.61;101527.22;5059774;28;45321;-71
2022/07/30 02:53:36;;;;;;;;;5.00;5.00;;;;;24.94;45.18;101530.94;5059382;28;45477;-72
2022/07/30 02:56:04;;;;;;;;;4.00;3.67;;;;;24.91;45.87;101527.44;5059491;28;47982;-70
2022/07/30 02:58:30;;;;;;;;;5.00;4.00;;;;;24.89;45.95;101535.63;5060124;28;45283;-71
2022/07/30 03:00:56;;;;;;;;;6.00;5.00;;;;;24.90;45.64;101533.78;5076851;28;63251;-70
2022/07/30 03:03:27;;;;;;;;;6.00;5.00;;;;;24.87;45.64;101542.88;5060125;28;45500;-72
2022/07/30 03:05:53;;;;;;;;;5.00;5.00;;;;;24.86;45.96;101546.53;5077552;28;46123;-72
2022/07/30 03:08:18;;;;;;;;;4.00;4.00;;;;;24.80;46.10;101539.53;5058716;28;65640;-71
2022/07/30 03:10:44;;;;;;;;;5.00;5.00;;;;;24.80;45.86;101549.47;5076768;28;61713;-71
2022/07/30 03:13:11;;;;;;;;;3.33;3.33;;;;;24.76;45.96;101539.69;5059093;28;63849;-71
2022/07/30 03:15:41;;;;;;;;;4.00;4.00;;;;;24.69;46.41;101530.06;5059039;28;46437;-71
2022/07/30 03:18:12;;;;;;;;;5.00;4.00;;;;;24.69;46.49;101532.78;5059320;28;45268;-71
2022/07/30 03:20:38;;;;;;;;;5.67;4.33;;;;;24.64;46.29;101535.63;5078020;28;45454;-72
2022/07/30 03:23:04;;;;;;;;;3.67;3.67;;;;;24.59;46.18;101531.34;5058980;28;55965;-71
2022/07/30 03:25:30;;;;;;;;;6.67;5.00;;;;;24.54;46.24;101529.69;5059236;28;45498;-72
2022/07/30 03:27:56;;;;;;;;;5.00;5.00;;;;;24.53;46.56;101538.72;5077212;28;45314;-71
2022/07/30 03:30:23;;;;;;;;;5.00;5.00;;;;;24.49;46.95;101544.28;5077349;27;45479;-71
2022/07/30 03:32:50;;;;;;;;;4.00;4.00;;;;;24.44;46.81;101535.47;5059509;28;45453;-71
2022/07/30 03:35:16;;;;;;;;;3.00;3.00;;;;;24.40;47.08;101537.41;5059091;28;46164;-71
2022/07/30 03:37:42;;;;;;;;;4.00;4.00;;;;;24.36;46.88;101537.56;5058398;28;54027;-72
2022/07/30 03:40:07;;;;;;;;;6.33;5.00;;;;;24.35;47.29;101533.06;5058399;28;59128;-70
2022/07/30 03:42:34;;;;;;;;;4.33;4.33;;;;;24.29;47.44;101528.78;5059551;28;45301;-72
2022/07/30 03:45:05;;;;;;;;;4.00;4.00;;;;;24.26;47.44;101531.56;5058847;28;45992;-71
2022/07/30 03:47:36;;;;;;;;;9.00;6.00;;;;;24.22;47.44;101533.47;5058702;28;45259;-72
2022/07/30 03:50:02;;;;;;;;;6.33;4.67;;;;;24.20;47.26;101534.47;5076995;28;45414;-71
2022/07/30 03:52:27;;;;;;;;;5.00;5.00;;;;;24.16;47.46;101541.78;5077195;28;45533;-72
2022/07/30 03:54:53;;;;;;;;;6.67;5.67;;;;;24.14;47.94;101548.19;5057713;28;68894;-71
2022/07/30 03:57:19;;;;;;;;;5.67;4.00;;;;;24.09;47.90;101537.53;5058621;28;45274;-71
2022/07/30 03:59:45;;;;;;;;;5.67;4.00;;;;;24.08;47.97;101541.19;5058477;28;59849;-71
2022/07/30 04:02:11;;;;;;;;;5.67;5.00;;;;;24.03;48.20;101540.47;5058865;28;45470;-72
2022/07/30 04:04:41;;;;;;;;;8.33;6.00;;;;;24.03;48.70;101549.44;5076945;28;46668;-71
2022/07/30 04:07:07;;;;;;;;;5.00;5.00;;;;;24.02;48.14;101538.66;5079306;28;45450;-71
2022/07/30 04:09:32;;;;;;;;;4.00;4.00;;;;;23.99;48.26;101545.06;5080638;28;45451;-72
2022/07/30 04:11:57;;;;;;;;;4.00;4.00;;;;;23.95;48.51;101538.00;5079894;28;62129;-71
2022/07/30 04:14:23;;;;;;;;;4.00;4.00;;;;;23.96;48.54;101546.97;5062256;28;45596;-71
2022/07/30 04:17:01;;;;;;;;;5.00;5.00;;;;;23.92;48.89;101551.59;5079583;28;53619;-71
2022/07/30 04:19:45;;;;;;;;;4.33;4.00;;;;;23.89;48.36;101545.41;5062561;28;45417;-71
2022/07/30 04:22:12;;;;;;;;;4.33;4.33;;;;;23.86;48.93;101554.47;5062500;28;45434;-71
2022/07/30 04:24:39;;;;;;;;;5.00;5.00;;;;;23.83;49.22;101554.59;5062078;28;46820;-72
2022/07/30 04:27:05;;;;;;;;;4.00;4.00;;;;;23.79;49.10;101551.09;5062051;28;45308;-72
2022/07/30 04:29:30;;;;;;;;;5.00;5.00;;;;;23.81;49.24;101559.16;5061921;28;45576;-71
2022/07/30 04:31:56;;;;;;;;;4.00;4.00;;;;;23.76;49.24;101555.75;5062111;28;46232;-71
2022/07/30 04:34:21;;;;;;;;;4.33;4.33;;;;;23.76;49.29;101561.13;5061422;28;66622;-71
2022/07/30 04:36:46;;;;;;;;;5.33;5.00;;;;;23.73;49.41;101570.19;5079305;28;62906;-72
2022/07/30 04:39:12;;;;;;;;;5.00;4.67;;;;;23.73;49.50;101559.41;5079988;28;45283;-71
2022/07/30 04:41:38;;;;;;;;;5.00;3.67;;;;;23.71;49.23;101553.19;5079997;28;45248;-71
2022/07/30 04:44:03;;;;;;;;;3.00;3.00;;;;;23.70;49.70;101562.22;5079892;28;46525;-71
2022/07/30 04:46:29;;;;;;;;;4.33;3.67;;;;;23.71;49.59;101568.47;5079818;28;45440;-72
2022/07/30 04:48:54;;;;;;;;;7.00;5.00;;;;;23.71;49.78;101563.09;5079571;28;53936;-71
2022/07/30 04:51:26;;;;;;;;;6.67;5.00;;;;;23.71;49.35;101557.69;5079711;28;45565;-71
2022/07/30 04:53:52;;;;;;;;;5.33;5.00;;;;;23.70;49.57;101566.69;5079446;28;45943;-70
2022/07/30 04:56:19;;;;;;;;;5.33;4.00;;;;;23.69;49.53;101559.53;5062211;28;45336;-72
2022/07/30 04:58:45;;;;;;;;;4.00;4.00;;;;;23.66;49.56;101559.66;5061734;28;45189;-70
2022/07/30 05:01:11;;;;;;;;;5.00;4.00;;;;;23.68;49.64;101560.47;5079587;28;49852;-71
2022/07/30 05:03:37;;;;;;;;;3.67;3.33;;;;;23.67;49.82;101562.28;5061568;28;46037;-71
2022/07/30 05:06:04;;;;;;;;;6.00;5.00;;;;;23.65;49.81;101557.88;5061121;28;45537;-71
2022/07/30 05:08:29;;;;;;;;;4.00;4.00;;;;;23.68;49.82;101568.56;5061089;28;58586;-73
2022/07/30 05:10:55;;;;;;;;;6.00;4.00;;;;;23.66;49.70;101567.75;5078446;28;63133;-72
2022/07/30 05:13:20;;;;;;;;;5.00;3.67;;;;;23.66;49.94;101568.63;5044523;28;47746;-70
2022/07/30 05:15:47;;;;;;;;;4.00;4.00;;;;;23.67;50.08;101574.91;5079326;28;45318;-71
2022/07/30 05:18:12;;;;;;;;;4.00;3.00;;;;;23.66;50.15;101583.94;5079621;28;45399;-71
2022/07/30 05:20:38;;;;;;;;;5.00;5.00;;;;;23.69;50.14;101583.81;5078704;28;62356;-71
2022/07/30 05:23:04;;;;;;;;;7.00;5.00;;;;;23.70;50.13;101583.78;5079244;28;45632;-72
2022/07/30 05:25:29;;;;;;;;;5.00;3.67;;;;;23.70;50.27;101575.69;5079377;28;45358;-71
2022/07/30 05:27:56;;;;;;;;;6.00;4.33;;;;;23.71;50.41;101585.53;5079615;28;45531;-71
2022/07/30 05:30:22;;;;;;;;;3.67;3.67;;;;;23.71;50.48;101588.25;5079522;27;45488;-70
2022/07/30 05:32:48;;;;;;;;;5.00;5.00;;;;;23.74;50.45;101600.72;5079239;28;45810;-71
2022/07/30 05:35:13;;;;;;;;;4.67;4.00;;;;;23.71;50.69;101587.38;5060087;28;64173;-71
2022/07/30 05:37:38;;;;;;;;;6.00;5.00;;;;;23.73;49.86;101586.38;5078426;28;58677;-71
2022/07/30 05:40:04;;;;;;;;;5.00;3.00;;;;;23.74;50.39;101584.56;5079015;28;45306;-70
2022/07/30 05:42:29;;;;;;;;;4.33;4.33;;;;;23.74;50.47;101585.44;5078997;28;46538;-71
2022/07/30 05:44:55;;;;;;;;;3.00;3.00;;;;;23.77;50.43;101590.75;5078247;28;61243;-71
2022/07/30 05:47:20;;;;;;;;;4.67;4.67;;;;;23.79;50.64;101585.28;5060617;28;45864;-71
2022/07/30 05:49:46;;;;;;;;;5.00;5.00;;;;;23.81;50.77;101587.94;5078310;28;55099;-71
2022/07/30 05:52:11;;;;;;;;;5.00;5.00;;;;;23.81;50.98;101596.94;5078007;28;71112;-71
2022/07/30 05:54:37;;;;;;;;;7.00;5.00;;;;;23.82;50.90;101585.19;5078928;28;45223;-71
2022/07/30 05:57:02;;;;;;;;;4.00;4.00;;;;;23.84;51.03;101580.63;5079210;28;45216;-71
2022/07/30 05:59:28;;;;;;;;;3.00;3.00;;;;;23.86;50.64;101583.28;5060549;28;45488;-71
2022/07/30 06:01:53;;;;;;;;;5.00;4.33;;;;;23.89;50.73;101594.84;5078768;28;46062;-71
2022/07/30 06:04:18;;;;;;;;;3.00;3.00;;;;;23.92;51.10;101600.16;5077887;28;62682;-71
2022/07/30 06:06:44;;;;;;;;;6.33;4.00;;;;;23.94;50.86;101592.00;5077952;28;60290;-73
2022/07/30 06:09:09;;;;;;;;;8.67;7.33;;;;;23.96;51.04;101591.00;5077699;28;61998;-71
2022/07/30 06:11:34;;;;;;;;;7.67;7.00;;;;;23.99;51.07;101596.31;5060338;28;45585;-71
2022/07/30 06:14:00;;;;;;;;;6.33;5.00;;;;;24.01;51.31;101594.44;5059612;28;65674;-71
2022/07/30 06:16:25;;;;;;;;;8.33;6.67;;;;;24.03;51.30;101597.13;5078600;28;45786;-73
2022/07/30 06:18:50;;;;;;;;;8.00;8.00;;;;;24.08;51.95;101602.38;5077878;28;56669;-71
2022/07/30 06:21:16;;;;;;;;;10.00;7.67;;;;;24.09;52.27;101598.72;5078319;28;45960;-71
2022/07/30 06:23:41;;;;;;;;;11.33;8.00;;;;;24.07;51.91;101592.47;5077423;28;63150;-71
2022/07/30 06:26:06;;;;;;;;;6.67;6.00;;;;;24.11;52.01;101602.25;5078051;28;51908;-72
2022/07/30 06:28:32;;;;;;;;;9.67;8.67;;;;;24.11;52.38;101608.53;5077732;28;45593;-71
2022/07/30 06:30:57;;;;;;;;;11.00;10.00;;;;;24.13;52.70;101611.16;5077861;27;47483;-70
2022/07/30 06:33:23;;;;;;;;;9.00;9.00;;;;;24.12;52.35;101606.69;5078266;28;45288;-70
2022/07/30 06:35:48;;;;;;;;;8.00;8.00;;;;;24.18;52.36;101610.09;5078244;28;45622;-72
2022/07/30 06:38:13;;;;;;;;;7.33;7.33;;;;;24.21;52.51;101620.78;5078257;28;45462;-71
2022/07/30 06:40:39;;;;;;;;;8.00;8.00;;;;;24.21;52.62;101618.09;5077338;28;67592;-71
2022/07/30 06:43:04;;;;;;;;;9.33;8.33;;;;;24.23;52.60;101626.13;5078114;28;45311;-71
2022/07/30 06:45:29;;;;;;;;;8.00;8.00;;;;;24.27;52.49;101623.28;5059410;28;49338;-71
2022/07/30 06:47:58;;;;;;;;;11.00;8.00;;;;;24.29;52.69;101613.31;5060206;28;45533;-70
2022/07/30 06:50:24;;;;;;;;;9.00;8.00;;;;;24.33;52.84;101621.31;5077916;28;45830;-71
2022/07/30 06:52:50;;;;;;;;;7.00;6.00;;;;;24.38;52.22;101635.56;5059326;28;53418;-71
2022/07/30 06:55:15;;;;;;;;;8.33;8.33;;;;;24.38;52.35;101632.88;5077097;28;59697;-72
2022/07/30 06:57:41;;;;;;;;;7.67;6.00;;;;;24.40;51.90;101623.78;5077908;28;45522;-72
2022/07/30 07:00:07;;;;;;;;;5.00;5.00;;;;;24.42;51.54;101623.72;5078089;28;45739;-71
2022/07/30 07:02:32;;;;;;;;;9.33;7.00;;;;;24.46;51.82;101626.28;5077450;28;45538;-71
2022/07/30 07:04:58;;;;;;;;;9.00;8.00;;;;;24.47;51.87;101625.34;5059676;28;45342;-73
2022/07/30 07:07:23;;;;;;;;;7.33;6.00;;;;;24.54;51.84;101634.09;5077254;28;55408;-71
2022/07/30 07:09:48;;;;;;;;;8.00;8.00;;;;;24.59;51.90;101642.94;5076915;28;63366;-72
2022/07/30 07:12:14;;;;;;;;;9.00;7.00;;;;;24.60;52.30;101643.81;5077072;28;56958;-73
2022/07/30 07:14:39;;;;;;;;;8.67;6.33;;;;;24.65;51.80;101649.94;5077839;28;45406;-70
2022/07/30 07:17:04;;;;;;;;;7.67;7.00;;;;;24.68;52.51;101652.53;5076551;28;61020;-71
2022/07/30 07:19:30;;;;;;;;;12.33;8.67;;;;;24.70;51.80;101647.97;5059235;28;48676;-70
2022/07/30 07:21:55;;;;;;;;;9.67;8.00;;;;;24.72;51.86;101646.13;5058347;28;63876;-70
2022/07/30 07:24:20;;;;;;;;;6.67;6.67;;;;;24.74;51.92;101636.13;5077625;28;45264;-71
2022/07/30 07:26:46;;;;;;;;;8.33;5.00;;;;;24.78;52.02;101635.09;5077420;28;45717;-72
2022/07/30 07:29:11;;;;;;;;;8.00;6.00;;;;;24.84;51.25;101634.88;5076693;28;63790;-71
2022/07/30 07:31:36;;;;;;;;;9.00;8.00;;;;;24.86;51.56;101641.09;5076923;27;45247;-72
2022/07/30 07:34:02;;;;;;;;;10.33;6.33;;;;;24.88;51.17;101633.81;5076767;28;57727;-71
2022/07/30 07:36:28;;;;;;;;;4.33;4.33;;;;;24.91;51.12;101630.13;5077525;28;45435;-72
2022/07/30 07:38:53;;;;;;;;;8.00;7.00;;;;;24.95;51.55;101637.19;5076235;28;64200;-72
2022/07/30 07:41:18;;;;;;;;;9.33;8.00;;;;;24.99;50.77;101645.13;5077213;28;45480;-71
2022/07/30 07:43:44;;;;;;;;;7.00;7.00;;;;;24.98;51.03;101637.97;5076870;28;60938;-71
2022/07/30 07:46:11;;;;;;;;;6.67;6.67;;;;;25.00;50.87;101633.38;5076447;28;56128;-70
2022/07/30 07:48:36;;;;;;;;;10.00;7.00;;;;;25.02;50.72;101634.19;5042624;28;46686;-72
2022/07/30 07:51:01;;;;;;;;;6.33;6.33;;;;;25.03;51.14;101635.06;5075417;28;63872;-72
2022/07/30 07:53:27;;;;;;;;;9.33;8.00;;;;;25.04;51.02;101626.03;5076757;28;45441;-72
2022/07/30 07:55:52;;;;;;;;;7.00;7.00;;;;;25.10;51.13;101631.25;5077241;28;45267;-71
2022/07/30 07:58:18;;;;;;;;;6.00;6.00;;;;;25.17;50.54;101637.31;5076979;28;45767;-71
2022/07/30 08:00:43;;;;;;;;;6.00;6.00;;;;;25.21;50.91;101631.75;5058763;28;45565;-71
2022/07/30 08:03:08;;;;;;;;;7.00;5.00;;;;;25.26;50.22;101628.88;5077247;28;45303;-71
2022/07/30 08:05:34;;;;;;;;;7.00;6.00;;;;;25.32;50.04;101634.03;5076930;28;45462;-72
2022/07/30 08:07:59;;;;;;;;;6.33;6.33;;;;;25.38;49.93;101632.94;5058081;28;65809;-70
2022/07/30 08:10:25;;;;;;;;;8.33;6.00;;;;;25.42;50.45;101632.75;5075870;28;64536;-71
2022/07/30 08:12:50;;;;;;;;;7.00;6.33;;;;;25.51;49.54;101636.91;5077044;28;45276;-72
2022/07/30 08:15:15;;;;;;;;;7.67;5.00;;;;;25.57;49.69;101629.47;5076160;28;53471;-71
2022/07/30 08:17:45;;;;;;;;;7.00;7.00;;;;;25.64;49.52;101631.94;5075888;28;63168;-71
2022/07/30 08:20:12;;;;;;;;;10.67;6.67;;;;;25.66;49.26;101624.63;5076501;28;45368;-71
2022/07/30 08:22:37;;;;;;;;;6.00;5.00;;;;;25.71;48.91;101630.72;5076930;28;45342;-71
2022/07/30 08:25:04;;;;;;;;;5.00;5.00;;;;;25.71;49.45;101633.44;5076618;28;45311;-71
2022/07/30 08:27:30;;;;;;;;;6.33;6.33;;;;;25.73;49.31;101631.56;5076540;28;45644;-70
2022/07/30 08:29:55;;;;;;;;;7.00;6.00;;;;;25.77;48.73;101633.22;5076110;27;45351;-73
2022/07/30 08:32:20;;;;;;;;;6.33;6.33;;;;;25.80;48.19;101635.81;5058694;28;45327;-70
2022/07/30 08:34:46;;;;;;;;;8.33;6.00;;;;;25.83;48.63;101636.59;5075853;28;59117;-71
2022/07/30 08:37:11;;;;;;;;;4.67;4.67;;;;;25.90;48.30;101645.34;5058513;28;46278;-71
2022/07/30 08:39:36;;;;;;;;;5.67;5.00;;;;;25.96;47.87;101645.09;5076161;28;45265;-71
2022/07/30 08:42:03;;;;;;;;;4.00;3.00;;;;;26.04;48.03;101648.34;5076207;28;57426;-72
2022/07/30 08:44:29;;;;;;;;;6.00;6.00;;;;;26.08;47.13;101641.88;5058562;28;45275;-71
2022/07/30 08:46:55;;;;;;;;;5.00;5.00;;;;;26.12;47.38;101639.94;5058043;28;46558;-71
2022/07/30 08:49:21;;;;;;;;;6.00;6.00;;;;;26.19;47.27;101640.56;5200644;22;45733;-72
2022/07/30 08:51:48;;;;;;;;;5.33;4.00;;;;;26.19;46.67;101638.72;5076850;28;45470;-72
2022/07/30 08:54:14;;;;;;;;;5.00;5.00;;;;;26.17;46.18;101637.03;5061365;28;45308;-71
2022/07/30 08:56:39;;;;;;;;;6.00;5.00;;;;;26.18;46.65;101646.91;5080543;28;45491;-72
2022/07/30 08:59:05;;;;;;;;;4.00;4.00;;;;;26.13;46.53;101637.16;5060818;28;65944;-71
2022/07/30 09:01:30;;;;;;;;;6.67;4.00;;;;;26.17;46.45;101647.88;5079365;28;58937;-70
2022/07/30 09:03:56;;;;;;;;;5.00;5.00;;;;;26.12;45.59;101629.09;5079749;28;45548;-71
2022/07/30 09:06:21;;;;;;;;;3.67;3.67;;;;;26.20;45.81;101640.47;5079695;28;46618;-73
2022/07/30 09:08:47;;;;;;;;;4.00;4.00;;;;;26.23;45.19;101640.38;5078898;28;59562;-71
2022/07/30 09:11:12;;;;;;;;;4.00;4.00;;;;;26.25;45.60;101641.19;5061461;28;45385;-71
2022/07/30 09:13:47;;;;;;;;;3.00;3.00;;;;;26.28;45.11;101635.66;5044839;28;45563;-73
2022/07/30 09:16:24;;;;;;;;;6.33;5.00;;;;;26.33;44.87;101646.28;5061927;28;47173;-71
2022/07/30 09:18:51;;;;;;;;;4.00;4.00;;;;;26.36;44.47;101640.72;5079504;28;45273;-70
2022/07/30 09:21:23;;;;;;;;;3.33;3.00;;;;;26.42;44.49;101647.75;5061669;28;45454;-73
2022/07/30 09:23:58;;;;;;;;;4.00;4.00;;;;;26.48;44.27;101640.28;5079349;28;45527;-72
2022/07/30 09:26:24;;;;;;;;;6.00;4.00;;;;;26.53;43.84;101634.66;5079197;28;46983;-71
2022/07/30 09:28:50;;;;;;;;;3.67;3.67;;;;;26.53;43.98;101640.97;5053823;28;46372;-73
2022/07/30 09:31:17;;;;;;;;;3.67;3.67;;;;;26.58;43.46;101644.34;5055133;28;45290;-72
2022/07/30 09:33:43;;;;;;;;;4.00;4.00;;;;;26.63;43.91;101644.13;5079357;28;45415;-72
2022/07/30 09:36:11;;;;;;;;;5.00;4.00;;;;;26.68;43.60;101650.22;5060824;28;46056;-72
2022/07/30 09:38:49;;;;;;;;;5.00;5.00;;;;;26.68;44.09;101642.09;5078731;28;45433;-72
2022/07/30 09:41:15;;;;;;;;;6.00;3.67;;;;;26.72;43.83;101650.97;5079145;28;45238;-72
2022/07/30 09:43:49;;;;;;;;;6.00;3.00;;;;;26.73;43.51;101648.19;5080162;28;45316;-72
2022/07/30 09:46:15;;;;;;;;;3.67;3.67;;;;;26.74;43.29;101650.00;5081105;28;45823;-72
2022/07/30 09:48:41;;;;;;;;;3.00;3.00;;;;;26.78;42.90;101656.13;5064325;28;45499;-72
2022/07/30 09:51:06;;;;;;;;;7.00;4.00;;;;;26.79;42.23;101658.81;5079993;28;45548;-72
2022/07/30 09:53:33;;;;;;;;;6.00;4.67;;;;;26.81;42.22;101656.00;5078769;28;45390;-70
2022/07/30 09:55:58;;;;;;;;;4.00;3.33;;;;;26.84;42.17;101658.56;5043353;28;46684;-71
2022/07/30 09:58:36;;;;;;;;;0.00;0.00;;;;;26.87;42.72;101658.44;5078713;28;45440;-72
2022/07/30 10:01:01;;;;;;;;;5.00;5.00;;;;;26.89;42.71;101649.28;5060654;28;45283;-71
2022/07/30 10:03:27;;;;;;;;;3.33;3.33;;;;;26.93;42.77;101655.47;5078072;28;45418;-72
2022/07/30 10:05:54;;;;;;;;;4.67;4.67;;;;;26.96;42.38;101647.22;5077920;28;57460;-71
2022/07/30 10:08:56;;;;;;;;;5.67;4.00;;;;;27.01;42.77;101638.88;5078616;28;45239;-72
2022/07/30 10:11:23;;;;;;;;;3.33;3.33;;;;;27.13;42.24;101643.78;5077953;28;45241;-70
2022/07/30 10:13:49;;;;;;;;;5.00;4.00;;;;;27.19;42.28;101648.91;5078686;28;45473;-72
2022/07/30 10:16:15;;;;;;;;;6.00;4.67;;;;;27.26;41.99;101649.50;5059937;28;47750;-72
2022/07/30 10:18:41;;;;;;;;;5.00;4.00;;;;;27.26;42.32;101646.78;5060421;28;45275;-71
2022/07/30 10:21:07;;;;;;;;;5.67;5.00;;;;;27.27;41.76;101646.75;5078611;28;45516;-71
2022/07/30 10:23:33;;;;;;;;;3.00;3.00;;;;;27.30;42.68;101640.28;5078305;28;45489;-72
2022/07/30 10:26:00;;;;;;;;;8.00;5.00;;;;;27.36;42.65;101642.72;5079106;28;45403;-71
2022/07/30 10:28:26;;;;;;;;;4.00;4.00;;;;;27.44;42.67;101639.66;5085216;22;45259;-72
2022/07/30 10:30:52;;;;;;;;;4.33;4.33;;;;;27.49;42.23;101634.91;5078320;27;45417;-72
2022/07/30 10:33:22;;;;;;;;;5.00;5.00;;;;;27.54;41.84;101632.81;5060314;28;45331;-71
2022/07/30 10:35:48;;;;;;;;;6.33;5.00;;;;;27.58;42.16;101624.47;5078026;28;46959;-71
2022/07/30 10:38:14;;;;;;;;;4.00;4.00;;;;;27.60;41.94;101624.41;5059840;28;45306;-72
2022/07/30 10:41:01;;;;;;;;;3.33;3.33;;;;;27.65;41.07;101628.66;5060439;28;45349;-72
2022/07/30 10:43:51;;;;;;;;;4.67;4.67;;;;;27.69;41.54;101632.97;5078223;28;45488;-72
2022/07/30 10:46:42;;;;;;;;;7.33;4.33;;;;;27.69;40.81;101632.97;5077663;28;45909;-73
2022/07/30 10:49:13;;;;;;;;;5.00;5.00;;;;;27.74;41.49;101627.38;5078173;28;45334;-72
2022/07/30 10:51:57;;;;;;;;;3.00;3.00;;;;;27.77;41.23;101640.81;5078442;28;45276;-72
2022/07/30 10:54:36;;;;;;;;;4.67;4.00;;;;;27.82;41.73;101627.00;5077966;28;45316;-71
2022/07/30 10:57:14;;;;;;;;;4.33;4.00;;;;;27.85;41.00;101624.13;5077948;28;46782;-71
2022/07/30 10:59:48;;;;;;;;;4.00;4.00;;;;;27.91;41.45;101630.16;5078363;28;45302;-71
2022/07/30 11:02:18;;;;;;;;;8.33;4.33;;;;;27.92;41.07;101622.91;5077987;28;45364;-72
2022/07/30 11:04:43;;;;;;;;;5.00;3.67;;;;;27.97;40.89;101623.56;5077985;28;45548;-71
2022/07/30 11:07:21;;;;;;;;;6.00;4.33;;;;;28.02;41.04;101617.88;5059415;28;45891;-72
2022/07/30 11:09:48;;;;;;;;;5.67;5.00;;;;;28.05;41.05;101613.19;5077643;28;45442;-72
2022/07/30 11:12:13;;;;;;;;;6.00;4.33;;;;;28.07;40.58;101613.09;5059509;28;45468;-71
2022/07/30 11:14:44;;;;;;;;;4.00;4.00;;;;;28.12;40.66;101617.34;5059355;28;45564;-71
2022/07/30 11:17:13;;;;;;;;;4.33;4.33;;;;;28.14;40.61;101612.72;5077181;28;46537;-72
2022/07/30 11:20:00;;;;;;;;;4.67;4.67;;;;;28.19;40.49;101605.22;5059365;28;45451;-71
2022/07/30 11:22:30;;;;;;;;;4.00;4.00;;;;;28.24;40.42;101601.41;5077657;28;45454;-72
2022/07/30 11:24:55;;;;;;;;;4.00;4.00;;;;;28.30;40.71;101607.41;5077794;28;45223;-72
2022/07/30 11:27:40;;;;;;;;;3.00;3.00;;;;;28.41;40.61;101607.75;5077237;28;45420;-72
2022/07/30 11:30:15;;;;;;;;;4.33;4.33;;;;;28.47;40.75;101611.13;5058929;27;45540;-72